Climatologie pour Saint-Brevin les Pins
Jour • Résumé pour juin 27, 2017 Système :  Métrique    Anglais   Mixte
« - 1 jour
+ 1 jour »
Jour Semaine Mois Année Personnalisé
  Maximum : Minimum : Moyenne :
Température sous abri : -17.8 °C -8.5 °C -7.3 °C
Point de rosée : -17.8 °C -9.2 °C -8.6 °C
Humidité : Humidity % 71 % 86 %
Vitesse du vent : 0 km/h 0 km/h 8.9 km/h
Rafale : 0 km/h - -
Direction :- - WSW
Pression : 0 hPa 33981.9 hPa -
Précipitations : 0 mm    
Historical Graphs
 
 
Tableau de données pour juin 27, 2017
Heure Tempé Pt rosée Pression Vent Vitesse Rafale Humidité Taux pluie (/hr) Soleil
-17.8 °C -17.8 °C 0 hPa Calm     Humidity % 0 mm SolarRadiationWatts/m^2 W/m2 Conditions
00:00 -6.9 °C -8.1 °C 34154.6 hPa Calm   12.9 km/h 88 % 0 mm 0 W/m2
00:05 -7.1 °C -8.1 °C 34154.6 hPa Calm   7.7 km/h 89 % 0 mm 0 W/m2
00:10 -7.1 °C -8.1 °C 34154.6 hPa NW 2.6 km/h 7.7 km/h 89 % 0 mm 0 W/m2
00:15 -7.1 °C -8.1 °C 34154.6 hPa Calm   7.7 km/h 89 % 0 mm 0 W/m2
00:20 -7.2 °C -8.1 °C 34154.6 hPa NNW 7.7 km/h 7.7 km/h 90 % 0 mm 0 W/m2
00:25 -7.3 °C -8.1 °C 34154.6 hPa Calm   10.3 km/h 91 % 0 mm 0 W/m2
00:30 -7.3 °C -8.1 °C 34144.4 hPa NNW 2.6 km/h 10.3 km/h 91 % 0 mm 0 W/m2
00:35 -7.3 °C -8.1 °C 34154.6 hPa Calm   7.7 km/h 92 % 0 mm 0 W/m2
00:40 -7.3 °C -8.2 °C 34144.4 hPa NW 5.1 km/h 7.7 km/h 91 % 0 mm 0 W/m2
00:45 -7.3 °C -8.1 °C 34144.4 hPa Calm   7.7 km/h 92 % 0 mm 0 W/m2
00:50 -7.3 °C -8.1 °C 34144.4 hPa Calm   7.7 km/h 92 % 0 mm 0 W/m2
00:55 -7.4 °C -8.1 °C 34144.4 hPa Calm   2.6 km/h 93 % 0 mm 0 W/m2
01:00 -7.6 °C -8.2 °C 34144.4 hPa Calm     93 % 0 mm 0 W/m2
01:05 -7.6 °C -8.3 °C 34144.4 hPa Calm     93 % 0 mm 0 W/m2
01:10 -7.7 °C -8.3 °C 34144.4 hPa Calm   5.1 km/h 94 % 0 mm 0 W/m2
01:15 -7.6 °C -8.1 °C 34144.4 hPa Calm   5.1 km/h 95 % 0 mm 0 W/m2
01:20 -7.7 °C -8.3 °C 34144.4 hPa Calm   5.1 km/h 94 % 0 mm 0 W/m2
01:25 -7.8 °C -8.3 °C 34144.4 hPa Calm     94 % 0 mm 0 W/m2
01:30 -7.8 °C -8.3 °C 34144.4 hPa Calm     95 % 0 mm 0 W/m2
01:35 -7.8 °C -8.3 °C 34144.4 hPa Calm     95 % 0 mm 0 W/m2
01:40 -7.9 °C -8.3 °C 34144.4 hPa Calm     95 % 0 mm 0 W/m2
01:50 -7.9 °C -8.4 °C 34144.4 hPa Calm   5.1 km/h 95 % 0 mm 0 W/m2
01:55 -7.9 °C -8.4 °C 34144.4 hPa NW 2.6 km/h 7.7 km/h 95 % 0 mm 0 W/m2
02:00 -7.9 °C -8.4 °C 34144.4 hPa Calm   7.7 km/h 95 % 0 mm 0 W/m2
02:05 -8 °C -8.3 °C 34144.4 hPa Calm   5.1 km/h 96 % 0 mm 0 W/m2
02:10 -8.1 °C -8.5 °C 34144.4 hPa NW 2.6 km/h 5.1 km/h 95 % 0 mm 0 W/m2
02:15 -8 °C -8.3 °C 34144.4 hPa Calm   7.7 km/h 96 % 0 mm 0 W/m2
02:20 -8 °C -8.3 °C 34144.4 hPa NNW 2.6 km/h 10.3 km/h 96 % 0 mm 0 W/m2
02:25 -7.9 °C -8.3 °C 34144.4 hPa NNW 2.6 km/h 10.3 km/h 96 % 0 mm 0 W/m2
02:30 -7.8 °C -8.2 °C 34144.4 hPa Calm   12.9 km/h 96 % 0 mm 0 W/m2
02:35 -7.8 °C -8.1 °C 34144.4 hPa NNE 7.7 km/h 12.9 km/h 96 % 0 mm 0 W/m2
02:40 -7.7 °C -8.1 °C 34144.4 hPa Calm   12.9 km/h 96 % 0 mm 0 W/m2
02:45 -7.7 °C -8 °C 34144.4 hPa NNE 10.3 km/h 15.6 km/h 96 % 0 mm 0 W/m2
02:55 -7.7 °C -8 °C 34144.4 hPa ENE 2.6 km/h 15.6 km/h 96 % 0 mm 0 W/m2
03:00 -7.7 °C -8.2 °C 34144.4 hPa Calm   12.9 km/h 95 % 0 mm 0 W/m2
03:05 -7.8 °C -8.1 °C 34130.9 hPa NNE 5.1 km/h 10.3 km/h 96 % 0 mm 0 W/m2
03:10 -7.8 °C -8.2 °C 34144.4 hPa NNE 7.7 km/h 10.3 km/h 96 % 0 mm 0 W/m2
03:15 -7.8 °C -8.2 °C 34130.9 hPa Calm   10.3 km/h 96 % 0 mm 0 W/m2
03:20 -7.9 °C -8.3 °C 34144.4 hPa NNE 2.6 km/h 7.7 km/h 96 % 0 mm 0 W/m2
03:25 -7.9 °C -8.3 °C 34130.9 hPa Calm   10.3 km/h 96 % 0 mm 0 W/m2
03:30 -8 °C -8.3 °C 34130.9 hPa Calm   12.9 km/h 96 % 0 mm 0 W/m2
03:35 -8.1 °C -8.4 °C 34130.9 hPa NNW 5.1 km/h 18.2 km/h 96 % 0 mm 0 W/m2
03:40 -8.1 °C -8.4 °C 34130.9 hPa NNE 5.1 km/h 18.2 km/h 96 % 0 mm 0 W/m2
03:50 -8.2 °C -8.6 °C 34130.9 hPa North 5.1 km/h 15.6 km/h 96 % 0 mm 0 W/m2
03:55 -8.2 °C -8.7 °C 34130.9 hPa NNW 2.6 km/h 12.9 km/h 95 % 0 mm 0 W/m2
04:00 -8.2 °C -8.7 °C 34130.9 hPa NNW 10.3 km/h 12.9 km/h 95 % 0 mm 0 W/m2
04:05 -8.3 °C -8.7 °C 34130.9 hPa North 7.7 km/h 12.9 km/h 95 % 0 mm 0 W/m2
04:10 -8.3 °C -8.8 °C 34130.9 hPa North 5.1 km/h 12.9 km/h 95 % 0 mm 0 W/m2
04:15 -8.3 °C -8.8 °C 34130.9 hPa Calm   10.3 km/h 95 % 0 mm 0 W/m2
04:20 -8.3 °C -8.8 °C 34130.9 hPa Calm   10.3 km/h 95 % 0 mm 0 W/m2
04:25 -8.4 °C -8.9 °C 34120.7 hPa Calm   12.9 km/h 94 % 0 mm 0 W/m2
04:30 -8.4 °C -8.9 °C 34120.7 hPa WNW 5.1 km/h 12.9 km/h 94 % 0 mm 0 W/m2
04:35 -8.4 °C -8.9 °C 34120.7 hPa North 5.1 km/h 12.9 km/h 94 % 0 mm 0 W/m2
04:40 -8.4 °C -8.9 °C 34120.7 hPa Calm   12.9 km/h 94 % 0 mm 0 W/m2
04:45 -8.4 °C -8.9 °C 34107.2 hPa North 2.6 km/h 12.9 km/h 94 % 0 mm 0 W/m2
04:50 -8.4 °C -9.1 °C 34107.2 hPa Calm   12.9 km/h 93 % 0 mm 0 W/m2
04:55 -8.4 °C -9.1 °C 34107.2 hPa Calm   12.9 km/h 93 % 0 mm 0 W/m2
05:00 -8.4 °C -9.1 °C 34107.2 hPa Calm   7.7 km/h 93 % 0 mm 0 W/m2
05:05 -8.4 °C -9.1 °C 34107.2 hPa NNE 2.6 km/h 7.7 km/h 93 % 0 mm 0 W/m2
05:10 -8.4 °C -9.1 °C 34107.2 hPa Calm   7.7 km/h 93 % 0 mm 0 W/m2
05:15 -8.4 °C -9.1 °C 34107.2 hPa Calm   7.7 km/h 93 % 0 mm 0 W/m2
05:20 -8.5 °C -9.2 °C 34107.2 hPa North 7.7 km/h 10.3 km/h 93 % 0 mm 0 W/m2
05:25 -8.4 °C -9.1 °C 34107.2 hPa Calm   10.3 km/h 93 % 0 mm 0 W/m2
05:30 -8.5 °C -9.1 °C 34107.2 hPa Calm   7.7 km/h 93 % 0 mm 0 W/m2
05:35 -8.5 °C -9.1 °C 34107.2 hPa Calm   2.6 km/h 93 % 0 mm 0 W/m2
05:40 -8.5 °C -9.2 °C 34107.2 hPa Calm   5.1 km/h 93 % 0 mm 0 W/m2
05:45 -8.5 °C -9.1 °C 34107.2 hPa Calm   7.7 km/h 93 % 0 mm 0 W/m2
05:50 -8.4 °C -9.1 °C 34107.2 hPa North 2.6 km/h 7.7 km/h 93 % 0 mm 0 W/m2
05:55 -8.4 °C -9.1 °C 34097 hPa North 5.1 km/h 10.3 km/h 93 % 0 mm 0 W/m2
06:00 -8.4 °C -9.2 °C 34097 hPa Calm   10.3 km/h 92 % 0 mm 0 W/m2
06:05 -8.4 °C -9.1 °C 34097 hPa NNE 5.1 km/h 10.3 km/h 92 % 0 mm 0 W/m2
06:10 -8.4 °C -9.1 °C 34097 hPa NNE 5.1 km/h 7.7 km/h 92 % 0 mm 0 W/m2
06:15 -8.4 °C -9.2 °C 34097 hPa Calm   7.7 km/h 91 % 0 mm 0 W/m2
06:20 -8.4 °C -9.2 °C 34097 hPa Calm   5.1 km/h 91 % 0 mm 0 W/m2
06:25 -8.4 °C -9.1 °C 34097 hPa Calm   10.3 km/h 92 % 0 mm 0 W/m2
06:30 -8.4 °C -9.2 °C 34086.9 hPa NE 2.6 km/h 10.3 km/h 91 % 0 mm 0 W/m2
06:35 -8.3 °C -9.1 °C 34097 hPa Calm   7.7 km/h 91 % 0 mm 0 W/m2
06:40 -8.3 °C -9.2 °C 34086.9 hPa NE 2.6 km/h 10.3 km/h 91 % 0 mm 0 W/m2
06:45 -8.3 °C -9.2 °C 34086.9 hPa Calm   10.3 km/h 91 % 0 mm 5 W/m2
06:50 -8.3 °C -9.2 °C 34086.9 hPa NE 2.6 km/h 7.7 km/h 91 % 0 mm 9 W/m2
06:55 -8.3 °C -9.2 °C 34086.9 hPa NE 2.6 km/h 10.3 km/h 91 % 0 mm 11 W/m2
07:00 -8.3 °C -9.1 °C 34097 hPa Calm   15.6 km/h 91 % 0 mm 14 W/m2
07:05 -8.3 °C -9.1 °C 34086.9 hPa NE 2.6 km/h 15.6 km/h 91 % 0 mm 23 W/m2
07:10 -8.3 °C -9.2 °C 34086.9 hPa NE 5.1 km/h 10.3 km/h 90 % 0 mm 28 W/m2
07:15 -8.2 °C -9.2 °C 34086.9 hPa NE 5.1 km/h 12.9 km/h 90 % 0 mm 33 W/m2
07:20 -8.2 °C -9.1 °C 34086.9 hPa NNE 5.1 km/h 12.9 km/h 90 % 0 mm 40 W/m2
07:30 -8.2 °C -9.2 °C 34086.9 hPa Calm   12.9 km/h 89 % 0 mm 37 W/m2
07:35 -8.1 °C -9.1 °C 34086.9 hPa Calm   7.7 km/h 89 % 0 mm 30 W/m2
07:40 -8.1 °C -9.1 °C 34086.9 hPa Calm   7.7 km/h 89 % 0 mm 33 W/m2
07:45 -8.1 °C -9.1 °C 34097 hPa Calm   5.1 km/h 89 % 0 mm 32 W/m2
07:50 -8.1 °C -9.1 °C 34097 hPa Calm     89 % 0 mm 30 W/m2
07:55 -8 °C -8.9 °C 34097 hPa Calm     90 % 0 mm 28 W/m2
08:00 -8 °C -8.9 °C 34097 hPa Calm     90 % 0 mm 25 W/m2
08:05 -8.1 °C -9.1 °C 34097 hPa Calm     89 % 0 mm 35 W/m2
08:10 -8.1 °C -9.1 °C 34097 hPa Calm     89 % 0 mm 39 W/m2
08:15 -8 °C -9 °C 34097 hPa Calm   5.1 km/h 89 % 0 mm 44 W/m2
08:20 -7.9 °C -8.9 °C 34097 hPa Calm   15.6 km/h 89 % 0 mm 60 W/m2
08:25 -7.9 °C -9 °C 34097 hPa WSW 7.7 km/h 15.6 km/h 88 % 0 mm 56 W/m2
08:30 -7.8 °C -8.9 °C 34097 hPa WSW 2.6 km/h 10.3 km/h 88 % 0 mm 47 W/m2
08:35 -7.8 °C -8.9 °C 34107.2 hPa Calm   10.3 km/h 88 % 0 mm 37 W/m2
08:40 -7.8 °C -9.1 °C 34097 hPa West 7.7 km/h 10.3 km/h 87 % 0 mm 63 W/m2
08:45 -7.7 °C -8.9 °C 34097 hPa Calm   10.3 km/h 88 % 0 mm 76 W/m2
08:50 -7.7 °C -8.8 °C 34097 hPa Calm   10.3 km/h 88 % 0 mm 83 W/m2
08:55 -7.7 °C -8.8 °C 34097 hPa Calm   7.7 km/h 88 % 0 mm 77 W/m2
09:00 -7.7 °C -8.9 °C 34097 hPa Calm   7.7 km/h 87 % 0 mm 90 W/m2
09:05 -7.6 °C -8.6 °C 34097 hPa Calm   7.7 km/h 89 % 0 mm 125 W/m2
09:10 -7.6 °C -8.7 °C 34097 hPa Calm   7.7 km/h 88 % 0 mm 162 W/m2
09:15 -7.4 °C -8.7 °C 34097 hPa Calm   10.3 km/h 87 % 0 mm 141 W/m2
09:20 -7.4 °C -8.6 °C 34097 hPa West 5.1 km/h 10.3 km/h 87 % 0 mm 142 W/m2
09:25 -7.4 °C -8.8 °C 34097 hPa WNW 5.1 km/h 10.3 km/h 86 % 0 mm 165 W/m2
09:30 -7.4 °C -8.7 °C 34086.9 hPa Calm   10.3 km/h 86 % 0 mm 171 W/m2
09:35 -7.3 °C -8.6 °C 34086.9 hPa NW 2.6 km/h 10.3 km/h 86 % 0 mm 169 W/m2
09:40 -7.2 °C -8.5 °C 34086.9 hPa WNW 10.3 km/h 15.6 km/h 86 % 0 mm 185 W/m2
09:45 -7.2 °C -8.6 °C 34086.9 hPa West 12.9 km/h 15.6 km/h 85 % 0 mm 192 W/m2
09:50 -7.2 °C -8.7 °C 34086.9 hPa NW 2.6 km/h 12.9 km/h 84 % 0 mm 204 W/m2
09:55 -7.1 °C -8.7 °C 34086.9 hPa Calm   12.9 km/h 84 % 0 mm 241 W/m2
10:00 -7 °C -8.4 °C 34097 hPa West 5.1 km/h 12.9 km/h 85 % 0 mm 262 W/m2
10:05 -6.9 °C -8.4 °C 34097 hPa Calm   12.9 km/h 84 % 0 mm 211 W/m2
10:10 -6.9 °C -8.6 °C 34097 hPa Calm   10.3 km/h 83 % 0 mm 148 W/m2
10:15 -6.9 °C -8.5 °C 34097 hPa NW 5.1 km/h 7.7 km/h 84 % 0 mm 121 W/m2
10:25 -7.1 °C -8.7 °C 34097 hPa WNW 7.7 km/h 7.7 km/h 83 % 0 mm 134 W/m2
10:30 -7.1 °C -8.7 °C 34097 hPa Calm   10.3 km/h 83 % 0 mm 95 W/m2
10:35 -7.1 °C -8.8 °C 34097 hPa West 7.7 km/h 10.3 km/h 83 % 0 mm 76 W/m2
10:40 -7.2 °C -8.7 °C 34097 hPa Calm   7.7 km/h 84 % 0 mm 132 W/m2
10:45 -7.2 °C -8.7 °C 34086.9 hPa Calm   7.7 km/h 84 % 0 mm 313 W/m2
10:50 -7.1 °C -8.6 °C 34086.9 hPa Calm   7.7 km/h 84 % 0 mm 274 W/m2
10:55 -6.8 °C -8.4 °C 34086.9 hPa West 5.1 km/h 7.7 km/h 84 % 0 mm 255 W/m2
11:00 -6.8 °C -8.4 °C 34086.9 hPa West 5.1 km/h 7.7 km/h 83 % 0 mm 214 W/m2
11:05 -6.8 °C -8.6 °C 34086.9 hPa Calm   10.3 km/h 82 % 0 mm 229 W/m2
11:10 -6.8 °C -8.4 °C 34086.9 hPa West 5.1 km/h 10.3 km/h 83 % 0 mm 209 W/m2
11:15 -6.7 °C -8.6 °C 34086.9 hPa West 7.7 km/h 10.3 km/h 81 % 0 mm 302 W/m2
11:20 -6.5 °C -8.3 °C 34073.3 hPa WNW 7.7 km/h 10.3 km/h 81 % 0 mm 490 W/m2
11:25 -6.3 °C -8.4 °C 34073.3 hPa WNW 5.1 km/h 10.3 km/h 79 % 0 mm 385 W/m2
11:30 -6.2 °C -8.2 °C 34073.3 hPa Calm   10.3 km/h 80 % 0 mm 306 W/m2
11:35 -6.3 °C -8.3 °C 34073.3 hPa WNW 7.7 km/h 12.9 km/h 80 % 0 mm 264 W/m2
11:40 -6.4 °C -8.4 °C 34073.3 hPa WNW 7.7 km/h 23.3 km/h 80 % 0 mm 299 W/m2
11:45 -6.6 °C -8.3 °C 34073.3 hPa West 10.3 km/h 23.3 km/h 82 % 0 mm 174 W/m2
11:50 -6.8 °C -8.4 °C 34073.3 hPa West 18.2 km/h 18.2 km/h 83 % 0 mm 179 W/m2
11:55 -6.8 °C -8.4 °C 34073.3 hPa West 5.1 km/h 18.2 km/h 84 % 0 mm 237 W/m2
12:00 -6.8 °C -8.4 °C 34073.3 hPa Calm   23.3 km/h 84 % 0 mm 218 W/m2
12:05 -6.9 °C -8.4 °C 34073.3 hPa SW 15.6 km/h 28.5 km/h 84 % 0 mm 301 W/m2
12:10 -6.8 °C -8.3 °C 34073.3 hPa West 5.1 km/h 28.5 km/h 85 % 0 mm 255 W/m2
12:15 -6.8 °C -8.3 °C 34073.3 hPa NW 23.3 km/h 23.3 km/h 85 % 0 mm 339 W/m2
12:20 -6.9 °C -8.3 °C 34073.3 hPa West 7.7 km/h 25.9 km/h 85 % 0 mm 329 W/m2
12:25 -6.9 °C -8.3 °C 34073.3 hPa WSW 18.2 km/h 31.1 km/h 85 % 0 mm 251 W/m2
12:30 -6.9 °C -8.3 °C 34073.3 hPa West 10.3 km/h 36.2 km/h 86 % 0 mm 304 W/m2
12:40 -6.1 °C -7.9 °C 34063.2 hPa West 5.1 km/h 28.5 km/h 82 % 0 mm 963 W/m2
12:45 -5.9 °C -7.9 °C 34063.2 hPa WNW 10.3 km/h 25.9 km/h 80 % 0 mm 847 W/m2
12:50 -5.6 °C -7.6 °C 34063.2 hPa NW 15.6 km/h 28.5 km/h 80 % 0 mm 831 W/m2
12:55 -5.3 °C -7.6 °C 34063.2 hPa WNW 12.9 km/h 28.5 km/h 78 % 0 mm 851 W/m2
13:00 -5.3 °C -7.6 °C 34063.2 hPa WSW 12.9 km/h 25.9 km/h 77 % 0 mm 1048 W/m2
13:05 -5.2 °C -7.6 °C 34063.2 hPa WSW 18.2 km/h 28.5 km/h 77 % 0 mm 1181 W/m2
13:10 -5.2 °C -7.8 °C 34063.2 hPa West 23.3 km/h 28.5 km/h 75 % 0 mm 561 W/m2
13:15 -5.7 °C -7.9 °C 34063.2 hPa West 18.2 km/h 28.5 km/h 78 % 0 mm 545 W/m2
13:25 -5.7 °C -7.7 °C 34063.2 hPa WSW 10.3 km/h 25.9 km/h 80 % 0 mm 552 W/m2
13:30 -5.8 °C -7.9 °C 34063.2 hPa WSW 25.9 km/h 28.5 km/h 79 % 0 mm 404 W/m2
13:40 -6.2 °C -8.3 °C 34063.2 hPa South 15.6 km/h 31.1 km/h 79 % 0 mm 492 W/m2
13:45 -6.4 °C -8.3 °C 34063.2 hPa WSW 18.2 km/h 33.6 km/h 81 % 0 mm 459 W/m2
13:50 -6.4 °C -8.3 °C 34063.2 hPa West 10.3 km/h 33.6 km/h 81 % 0 mm 387 W/m2
13:55 -6 °C -8 °C 34063.2 hPa SW 15.6 km/h 33.6 km/h 80 % 0 mm 387 W/m2
14:00 -5.3 °C -8 °C 34063.2 hPa WSW 20.8 km/h 33.6 km/h 74 % 0 mm 1183 W/m2
14:05 -5.7 °C -8.2 °C 34063.2 hPa West 25.9 km/h 38.8 km/h 76 % 0 mm 643 W/m2
14:10 -5.9 °C -8.3 °C 34063.2 hPa West 23.3 km/h 38.8 km/h 77 % 0 mm 596 W/m2
14:15 -6.2 °C -8.3 °C 34049.6 hPa SW 20.8 km/h 36.2 km/h 79 % 0 mm 664 W/m2
14:20 -5.7 °C -7.9 °C 34049.6 hPa West 28.5 km/h 36.2 km/h 78 % 0 mm 749 W/m2
14:25 -5.8 °C -8.3 °C 34063.2 hPa West 7.7 km/h 36.2 km/h 76 % 0 mm 494 W/m2
14:30 -5.8 °C -8.3 °C 34049.6 hPa WSW 28.5 km/h 36.2 km/h 76 % 0 mm 636 W/m2
14:35 -5.9 °C -8.3 °C 34049.6 hPa WNW 15.6 km/h 36.2 km/h 76 % 0 mm 585 W/m2
14:40 -5.9 °C -8.4 °C 34049.6 hPa WSW 28.5 km/h 36.2 km/h 76 % 0 mm 775 W/m2
14:45 -5.8 °C -8.2 °C 34049.6 hPa SW 15.6 km/h 31.1 km/h 76 % 0 mm 779 W/m2
14:55 -5.8 °C -8.1 °C 34049.6 hPa West 20.8 km/h 33.6 km/h 77 % 0 mm 439 W/m2
15:00 -6.2 °C -8.5 °C 34049.6 hPa WSW 15.6 km/h 38.8 km/h 77 % 0 mm 411 W/m2
15:05 -6 °C -8.2 °C 34039.5 hPa West 7.7 km/h 38.8 km/h 78 % 0 mm 689 W/m2
15:10 -5.7 °C -8.4 °C 34039.5 hPa NW 12.9 km/h 28.5 km/h 74 % 0 mm 854 W/m2
15:15 -5.9 °C -8.4 °C 34039.5 hPa West 20.8 km/h 28.5 km/h 75 % 0 mm 432 W/m2
15:20 -6.2 °C -8.6 °C 34039.5 hPa WSW 15.6 km/h 31.1 km/h 76 % 0 mm 497 W/m2
15:25 -5.9 °C -8.4 °C 34039.5 hPa WSW 18.2 km/h 33.6 km/h 76 % 0 mm 1144 W/m2
15:30 -5.7 °C -8.3 °C 34039.5 hPa WSW 18.2 km/h 33.6 km/h 75 % 0 mm 984 W/m2
15:35 -5.3 °C -8.4 °C 34039.5 hPa WSW 18.2 km/h 33.6 km/h 71 % 0 mm 902 W/m2
15:40 -5.4 °C -8.4 °C 34039.5 hPa West 7.7 km/h 33.6 km/h 72 % 0 mm 436 W/m2
15:45 -5.7 °C -8.4 °C 34039.5 hPa West 20.8 km/h 28.5 km/h 74 % 0 mm 810 W/m2
15:50 -5.3 °C -8.3 °C 34039.5 hPa West 10.3 km/h 25.9 km/h 72 % 0 mm 860 W/m2
15:55 -5.6 °C -8.4 °C 34039.5 hPa WSW 28.5 km/h 36.2 km/h 73 % 0 mm 863 W/m2
16:00 -5.7 °C -8.5 °C 34039.5 hPa West 7.7 km/h 36.2 km/h 73 % 0 mm 847 W/m2
16:05 -5.9 °C -8.3 °C 34049.6 hPa West 18.2 km/h 36.2 km/h 76 % 0 mm 404 W/m2
16:10 -6.3 °C -8.6 °C 34049.6 hPa West 10.3 km/h 36.2 km/h 77 % 0 mm 290 W/m2
16:15 -6.5 °C -8.4 °C 34049.6 hPa West 10.3 km/h 38.8 km/h 80 % 0 mm 260 W/m2
16:25 -6.8 °C -8.7 °C 34049.6 hPa WSW 31.1 km/h 38.8 km/h 81 % 0 mm 362 W/m2
16:30 -6.8 °C -8.6 °C 34049.6 hPa WSW 18.2 km/h 44.1 km/h 81 % 0 mm 283 W/m2
16:35 -6.8 °C -8.7 °C 34049.6 hPa WNW 10.3 km/h 44.1 km/h 81 % 0 mm 330 W/m2
16:40 -6.7 °C -8.6 °C 34049.6 hPa SW 10.3 km/h 44.1 km/h 81 % 0 mm 301 W/m2
16:45 -6.9 °C -8.7 °C 34049.6 hPa WNW 25.9 km/h 46.7 km/h 82 % 0 mm 278 W/m2
16:50 -6.7 °C -8.3 °C 34049.6 hPa WSW 7.7 km/h 46.7 km/h 83 % 0 mm 325 W/m2
16:55 -6.3 °C -8.5 °C 34039.5 hPa West 18.2 km/h 38.8 km/h 78 % 0 mm 490 W/m2
17:00 -6.8 °C -8.9 °C 34039.5 hPa West 31.1 km/h 49.2 km/h 79 % 0 mm 250 W/m2
17:10 -6.7 °C -8.7 °C 34039.5 hPa West 31.1 km/h 44.1 km/h 80 % 0 mm 381 W/m2
17:15 -6.5 °C -8.6 °C 34039.5 hPa WNW 10.3 km/h 44.1 km/h 79 % 0 mm 896 W/m2
17:20 -6.3 °C -8.6 °C 34039.5 hPa West 23.3 km/h 49.2 km/h 77 % 0 mm 357 W/m2
17:25 -6.2 °C -8.7 °C 34039.5 hPa WNW 23.3 km/h 49.2 km/h 76 % 0 mm 714 W/m2
17:30 -6.2 °C -8.5 °C 34039.5 hPa West 15.6 km/h 49.2 km/h 77 % 0 mm 657 W/m2
17:35 -6.3 °C -8.8 °C 34039.5 hPa West 31.1 km/h 54.4 km/h 76 % 0 mm 418 W/m2
17:40 -6.6 °C -9 °C 34039.5 hPa NW 12.9 km/h 54.4 km/h 76 % 0 mm 362 W/m2
17:45 -6.6 °C -8.8 °C 34039.5 hPa West 18.2 km/h 51.8 km/h 78 % 0 mm 450 W/m2
17:55 -6.5 °C -8.7 °C 34029.3 hPa West 10.3 km/h 46.7 km/h 78 % 0 mm 754 W/m2
18:00 -6.4 °C -8.6 °C 34029.3 hPa WNW 23.3 km/h 54.4 km/h 78 % 0 mm 703 W/m2
18:05 -6.1 °C -8.4 °C 34029.3 hPa SW 7.7 km/h 54.4 km/h 77 % 0 mm 610 W/m2
18:10 -6.1 °C -8.4 °C 34015.8 hPa West 31.1 km/h 41.4 km/h 77 % 0 mm 548 W/m2
18:15 -6.3 °C -8.6 °C 34015.8 hPa WSW 18.2 km/h 41.4 km/h 77 % 0 mm 462 W/m2
18:20 -6.5 °C -8.6 °C 34015.8 hPa WNW 15.6 km/h 41.4 km/h 79 % 0 mm 438 W/m2
18:25 -6.5 °C -8.7 °C 34015.8 hPa WNW 10.3 km/h 44.1 km/h 78 % 0 mm 468 W/m2
18:30 -6.6 °C -8.6 °C 34015.8 hPa WSW 7.7 km/h 44.1 km/h 79 % 0 mm 323 W/m2
18:40 -6.7 °C -8.7 °C 34015.8 hPa WSW 28.5 km/h 44.1 km/h 80 % 0 mm 478 W/m2
18:45 -6.6 °C -8.6 °C 34015.8 hPa WSW 18.2 km/h 44.1 km/h 80 % 0 mm 434 W/m2
18:50 -6.5 °C -8.6 °C 34015.8 hPa WNW 33.6 km/h 44.1 km/h 79 % 0 mm 431 W/m2
18:55 -6.6 °C -8.6 °C 34015.8 hPa WSW 20.8 km/h 44.1 km/h 79 % 0 mm 134 W/m2
19:00 -6.8 °C -8.8 °C 34015.8 hPa West 20.8 km/h 36.2 km/h 80 % 0 mm 178 W/m2
19:05 -6.9 °C -8.6 °C 34005.6 hPa WSW 10.3 km/h 36.2 km/h 82 % 0 mm 199 W/m2
19:10 -6.7 °C -8.4 °C 34005.6 hPa WNW 5.1 km/h 36.2 km/h 82 % 0 mm 425 W/m2
19:15 -6.6 °C -8.4 °C 34005.6 hPa WNW 20.8 km/h 44.1 km/h 81 % 0 mm 380 W/m2
19:25 -6.4 °C -8.4 °C 34005.6 hPa West 28.5 km/h 41.4 km/h 80 % 0 mm 350 W/m2
19:30 -6.4 °C -8.3 °C 34005.6 hPa West 28.5 km/h 41.4 km/h 81 % 0 mm 339 W/m2
19:35 -6.4 °C -8.3 °C 34005.6 hPa WSW 12.9 km/h 36.2 km/h 81 % 0 mm 316 W/m2
19:40 -6.5 °C -8.4 °C 33992.1 hPa West 10.3 km/h 31.1 km/h 81 % 0 mm 292 W/m2
19:45 -6.6 °C -8.4 °C 33992.1 hPa WNW 15.6 km/h 28.5 km/h 81 % 0 mm 269 W/m2
19:50 -6.7 °C -8.4 °C 33992.1 hPa NW 28.5 km/h 38.8 km/h 82 % 0 mm 251 W/m2
19:55 -6.6 °C -8.4 °C 33992.1 hPa WNW 12.9 km/h 38.8 km/h 82 % 0 mm 236 W/m2
20:00 -6.7 °C -8.4 °C 33992.1 hPa West 18.2 km/h 38.8 km/h 82 % 0 mm 221 W/m2
20:10 -6.7 °C -8.4 °C 33992.1 hPa WSW 18.2 km/h 33.6 km/h 82 % 0 mm 207 W/m2
20:15 -6.6 °C -8.4 °C 33992.1 hPa WNW 2.6 km/h 31.1 km/h 82 % 0 mm 195 W/m2
20:20 -6.6 °C -8.4 °C 33992.1 hPa West 18.2 km/h 31.1 km/h 81 % 0 mm 160 W/m2
20:25 -6.7 °C -8.4 °C 33992.1 hPa WNW 23.3 km/h 33.6 km/h 82 % 0 mm 142 W/m2
20:30 -6.8 °C -8.4 °C 33992.1 hPa West 20.8 km/h 33.6 km/h 83 % 0 mm 127 W/m2
20:35 -6.8 °C -8.5 °C 33992.1 hPa West 18.2 km/h 33.6 km/h 83 % 0 mm 67 W/m2
20:40 -6.9 °C -8.5 °C 33992.1 hPa WNW 20.8 km/h 36.2 km/h 84 % 0 mm 62 W/m2
20:45 -7.1 °C -8.5 °C 33992.1 hPa West 23.3 km/h 36.2 km/h 85 % 0 mm 46 W/m2
20:55 -7.3 °C -8.7 °C 33992.1 hPa WNW 20.8 km/h 36.2 km/h 86 % 0 mm 42 W/m2
21:00 -7.4 °C -8.7 °C 33992.1 hPa West 20.8 km/h 36.2 km/h 87 % 0 mm 47 W/m2
21:05 -7.4 °C -8.7 °C 33992.1 hPa NNW 10.3 km/h 33.6 km/h 87 % 0 mm 40 W/m2
21:10 -7.5 °C -8.6 °C 33992.1 hPa WNW 15.6 km/h 33.6 km/h 88 % 0 mm 37 W/m2
21:15 -7.6 °C -8.6 °C 33981.9 hPa WNW 5.1 km/h 28.5 km/h 89 % 0 mm 30 W/m2
21:20 -7.6 °C -8.6 °C 33981.9 hPa NW 7.7 km/h 28.5 km/h 89 % 0 mm 25 W/m2
21:25 -7.6 °C -8.6 °C 33981.9 hPa West 10.3 km/h 28.5 km/h 90 % 0 mm 21 W/m2
21:30 -7.7 °C -8.6 °C 33992.1 hPa WNW 12.9 km/h 28.5 km/h 90 % 0 mm 18 W/m2
21:40 -7.7 °C -8.6 °C 33981.9 hPa WNW 23.3 km/h 33.6 km/h 91 % 0 mm 14 W/m2
21:45 -7.7 °C -8.6 °C 33981.9 hPa WNW 25.9 km/h 33.6 km/h 91 % 0 mm 14 W/m2
21:50 -7.7 °C -8.5 °C 33981.9 hPa West 10.3 km/h 33.6 km/h 92 % 0 mm 14 W/m2
21:55 -7.7 °C -8.5 °C 33992.1 hPa West 18.2 km/h 31.1 km/h 92 % 0 mm 9 W/m2
22:00 -7.8 °C -8.5 °C 33992.1 hPa West 10.3 km/h 31.1 km/h 92 % 0 mm 5 W/m2
22:05 -7.8 °C -8.6 °C 33981.9 hPa WNW 5.1 km/h 25.9 km/h 92 % 0 mm 0 W/m2
22:10 -7.8 °C -8.6 °C 33981.9 hPa WNW 20.8 km/h 25.9 km/h 92 % 0 mm 0 W/m2
22:15 -7.8 °C -8.6 °C 33981.9 hPa West 10.3 km/h 31.1 km/h 92 % 0 mm 0 W/m2
22:25 -7.8 °C -8.6 °C 33992.1 hPa WNW 12.9 km/h 28.5 km/h 92 % 0 mm 0 W/m2
22:30 -7.8 °C -8.6 °C 33992.1 hPa West 20.8 km/h 28.5 km/h 92 % 0 mm 0 W/m2
22:35 -7.8 °C -8.6 °C 33992.1 hPa WNW 15.6 km/h 28.5 km/h 92 % 0 mm 0 W/m2
22:40 -7.8 °C -8.6 °C 33992.1 hPa West 7.7 km/h 25.9 km/h 92 % 0 mm 0 W/m2
22:45 -7.9 °C -8.6 °C 33992.1 hPa WSW 12.9 km/h 20.8 km/h 92 % 0 mm 0 W/m2
22:50 -7.9 °C -8.6 °C 33992.1 hPa Calm   25.9 km/h 92 % 0 mm 0 W/m2
22:55 -7.9 °C -8.7 °C 33992.1 hPa NW 2.6 km/h 25.9 km/h 91 % 0 mm 0 W/m2
23:00 -7.9 °C -8.7 °C 33992.1 hPa West 5.1 km/h 20.8 km/h 91 % 0 mm 0 W/m2
23:10 -7.9 °C -8.6 °C 33992.1 hPa WSW 5.1 km/h 18.2 km/h 92 % 0 mm 0 W/m2
23:15 -7.9 °C -8.6 °C 33992.1 hPa WNW 15.6 km/h 15.6 km/h 92 % 0 mm 0 W/m2
23:20 -7.8 °C -8.6 °C 33992.1 hPa West 10.3 km/h 15.6 km/h 92 % 0 mm 0 W/m2
23:25 -7.8 °C -8.6 °C 33992.1 hPa Calm   15.6 km/h 92 % 0 mm 0 W/m2
23:30 -7.9 °C -8.7 °C 33992.1 hPa Calm   15.6 km/h 91 % 0 mm 0 W/m2
23:35 -7.9 °C -8.6 °C 33992.1 hPa WSW 10.3 km/h 15.6 km/h 92 % 0 mm 0 W/m2
23:40 -7.9 °C -8.7 °C 33992.1 hPa West 2.6 km/h 15.6 km/h 91 % 0 mm 0 W/m2
23:45 -7.9 °C -8.7 °C 33992.1 hPa WSW 5.1 km/h 12.9 km/h 91 % 0 mm 0 W/m2
23:55 -7.9 °C -8.8 °C 33992.1 hPa West 2.6 km/h 12.9 km/h 91 % 0 mm 0 W/m2
Avec l'autorisation de Weather Underground - 1.75 mb